createdAt,value
2023-02-26T00:01:28.784Z,-1.30
2023-02-26T00:03:57.725Z,-1.30
2023-02-26T00:06:25.747Z,-1.30
2023-02-26T00:08:53.103Z,-1.30
2023-02-26T00:11:20.732Z,-1.40
2023-02-26T00:13:47.732Z,-1.40
2023-02-26T00:16:50.493Z,-1.40
2023-02-26T00:19:17.392Z,-1.40
2023-02-26T00:21:44.256Z,-1.40
2023-02-26T00:24:10.957Z,-1.40
2023-02-26T00:26:37.557Z,-1.50
2023-02-26T00:29:04.884Z,-1.50
2023-02-26T00:31:32.082Z,-1.50
2023-02-26T00:33:59.628Z,-1.50
2023-02-26T00:37:02.948Z,-1.50
2023-02-26T00:40:06.244Z,-1.50
2023-02-26T00:42:33.744Z,-1.70
2023-02-26T00:45:00.594Z,-1.70
2023-02-26T00:47:49.526Z,-1.60
2023-02-26T00:50:19.863Z,-1.60
2023-02-26T00:53:08.952Z,-1.60
2023-02-26T00:55:35.913Z,-1.60
2023-02-26T00:58:02.547Z,-1.60
2023-02-26T01:00:29.957Z,-1.60
2023-02-26T01:02:57.832Z,-1.70
2023-02-26T01:05:24.776Z,-1.70
2023-02-26T01:08:15.305Z,-1.70
2023-02-26T01:10:43.212Z,-1.60
2023-02-26T01:13:10.198Z,-1.70
2023-02-26T01:15:37.244Z,-1.70
2023-02-26T01:18:28.278Z,-1.70
2023-02-26T01:21:00.581Z,-1.80
2023-02-26T01:23:31.621Z,-1.80
2023-02-26T01:26:10.359Z,-1.80
2023-02-26T01:28:37.184Z,-1.80
2023-02-26T01:31:07.768Z,-1.90
2023-02-26T01:33:55.450Z,-1.90
2023-02-26T01:36:25.094Z,-1.90
2023-02-26T01:39:04.395Z,-1.80
2023-02-26T01:41:41.404Z,-1.90
2023-02-26T01:44:08.026Z,-1.90
2023-02-26T01:46:53.624Z,-1.90
2023-02-26T01:49:21.445Z,-2.00
2023-02-26T01:51:52.689Z,-1.90
2023-02-26T01:54:22.758Z,-1.90
2023-02-26T01:57:06.473Z,-1.80
2023-02-26T01:59:36.723Z,-1.80
2023-02-26T02:02:06.795Z,-1.80
2023-02-26T02:04:34.189Z,-1.80
2023-02-26T02:07:01.778Z,-1.70
2023-02-26T02:09:28.501Z,-1.80
2023-02-26T02:12:08.058Z,-1.80
2023-02-26T02:15:09.774Z,-1.80
2023-02-26T02:18:15.595Z,-1.70
2023-02-26T02:21:00.877Z,-1.70
2023-02-26T02:23:40.047Z,-1.70
2023-02-26T02:26:06.723Z,-1.60
2023-02-26T02:28:53.689Z,-1.60
2023-02-26T02:31:31.650Z,-1.50
2023-02-26T02:34:21.991Z,-1.50
2023-02-26T02:37:17.633Z,-1.50
2023-02-26T02:39:52.984Z,-1.50
2023-02-26T02:42:29.529Z,-1.50
2023-02-26T02:45:08.512Z,-1.50
2023-02-26T02:47:39.500Z,-1.40
2023-02-26T02:50:24.626Z,-1.40
2023-02-26T02:52:57.998Z,-1.40
2023-02-26T02:55:30.102Z,-1.40
2023-02-26T02:58:31.274Z,-1.40
2023-02-26T03:01:02.750Z,-1.50
2023-02-26T03:03:32.544Z,-1.40
2023-02-26T03:05:59.470Z,-1.50
2023-02-26T03:08:34.708Z,-1.50
2023-02-26T03:11:01.469Z,-1.50
2023-02-26T03:13:28.262Z,-1.50
2023-02-26T03:16:34.164Z,-1.50
2023-02-26T03:19:26.151Z,-1.50
2023-02-26T03:22:13.871Z,-1.50
2023-02-26T03:25:11.332Z,-1.50
2023-02-26T03:27:40.701Z,-1.40
2023-02-26T03:30:26.328Z,-1.40
2023-02-26T03:33:19.233Z,-1.40
2023-02-26T03:35:52.673Z,-1.40
2023-02-26T03:38:45.053Z,-1.50
2023-02-26T03:41:17.091Z,-1.50
2023-02-26T03:43:55.961Z,-1.50
2023-02-26T03:46:32.064Z,-1.50
2023-02-26T03:49:06.416Z,-1.50
2023-02-26T03:51:35.152Z,-1.60
2023-02-26T03:54:55.333Z,-1.60
2023-02-26T03:57:42.834Z,-1.70
2023-02-26T04:00:24.181Z,-1.70
2023-02-26T04:03:20.232Z,-1.70
2023-02-26T04:05:50.613Z,-1.70
2023-02-26T04:08:18.271Z,-1.70
2023-02-26T04:10:54.479Z,-1.70
2023-02-26T04:13:21.861Z,-1.80
2023-02-26T04:15:49.631Z,-1.80
2023-02-26T04:18:16.474Z,-1.80
2023-02-26T04:20:43.317Z,-1.80
2023-02-26T04:23:10.735Z,-1.80
2023-02-26T04:25:37.508Z,-1.90
2023-02-26T04:28:04.530Z,-1.90
2023-02-26T04:30:32.514Z,-1.90
2023-02-26T04:32:59.801Z,-2.00
2023-02-26T04:35:26.510Z,-2.00
2023-02-26T04:37:53.171Z,-2.00
2023-02-26T04:40:20.911Z,-2.00
2023-02-26T04:42:47.670Z,-2.00
2023-02-26T04:45:19.699Z,-2.10
2023-02-26T04:47:46.329Z,-2.20
2023-02-26T04:50:13.362Z,-2.10
2023-02-26T04:52:40.150Z,-2.10
2023-02-26T04:55:07.965Z,-2.10
2023-02-26T04:57:37.953Z,-2.10
2023-02-26T05:00:09.024Z,-2.10
2023-02-26T05:02:38.276Z,-2.00
2023-02-26T05:05:06.203Z,-1.90
2023-02-26T05:07:33.988Z,-1.90
2023-02-26T05:10:00.616Z,-1.90
2023-02-26T05:12:28.056Z,-1.90
2023-02-26T05:14:54.724Z,-1.90
2023-02-26T05:17:21.726Z,-1.80
2023-02-26T05:19:48.425Z,-1.80
2023-02-26T05:22:15.800Z,-1.80
2023-02-26T05:24:42.605Z,-1.70
2023-02-26T05:27:10.378Z,-1.70
2023-02-26T05:29:44.740Z,-1.70
2023-02-26T05:32:13.425Z,-1.70
2023-02-26T05:34:40.119Z,-1.70
2023-02-26T05:37:06.724Z,-1.60
2023-02-26T05:39:33.433Z,-1.60
2023-02-26T05:42:00.095Z,-1.50
2023-02-26T05:44:26.858Z,-1.60
2023-02-26T05:46:53.621Z,-1.60
2023-02-26T05:49:20.285Z,-1.60
2023-02-26T05:51:46.956Z,-1.70
2023-02-26T05:54:13.693Z,-1.70
2023-02-26T05:56:40.329Z,-1.70
2023-02-26T05:59:07.025Z,-1.70
2023-02-26T06:01:34.250Z,-1.70
2023-02-26T06:04:00.897Z,-1.70
2023-02-26T06:06:27.832Z,-1.70
2023-02-26T06:08:54.613Z,-1.70
2023-02-26T06:11:21.258Z,-1.70
2023-02-26T06:13:47.902Z,-1.70
2023-02-26T06:16:14.632Z,-1.70
2023-02-26T06:18:41.367Z,-1.70
2023-02-26T06:21:09.242Z,-1.70
2023-02-26T06:23:36.241Z,-1.70
2023-02-26T06:26:03.094Z,-1.80
2023-02-26T06:28:29.709Z,-1.70
2023-02-26T06:30:56.715Z,-1.80
2023-02-26T06:33:23.764Z,-1.70
2023-02-26T06:35:50.808Z,-1.70
2023-02-26T06:38:18.115Z,-1.70
2023-02-26T06:40:46.011Z,-1.70
2023-02-26T06:43:12.635Z,-1.70
2023-02-26T06:45:39.883Z,-1.70
2023-02-26T06:48:06.881Z,-1.70
2023-02-26T06:50:33.472Z,-1.70
2023-02-26T06:53:00.088Z,-1.60
2023-02-26T06:55:26.904Z,-1.60
2023-02-26T06:57:57.563Z,-1.70
2023-02-26T07:00:25.673Z,-1.50
2023-02-26T07:02:52.960Z,-1.60
2023-02-26T07:05:20.161Z,-1.50
2023-02-26T07:07:46.788Z,-1.50
2023-02-26T07:10:14.274Z,-1.60
2023-02-26T07:12:40.934Z,-1.50
2023-02-26T07:15:08.181Z,-1.60
2023-02-26T07:17:34.941Z,-1.50
2023-02-26T07:20:06.361Z,-1.50
2023-02-26T07:22:33.789Z,-1.50
2023-02-26T07:25:00.569Z,-1.40
2023-02-26T07:27:27.502Z,-1.40
2023-02-26T07:29:54.208Z,-1.50
2023-02-26T07:32:21.044Z,-1.50
2023-02-26T07:34:47.733Z,-1.50
2023-02-26T07:37:14.716Z,-1.60
2023-02-26T07:39:41.361Z,-1.60
2023-02-26T07:42:09.206Z,-1.50
2023-02-26T07:44:36.079Z,-1.50
2023-02-26T07:47:03.210Z,-1.70
2023-02-26T07:49:29.906Z,-1.60
2023-02-26T07:51:56.879Z,-1.60
2023-02-26T07:54:23.733Z,-1.60
2023-02-26T07:56:50.574Z,-1.60
2023-02-26T07:59:17.285Z,-1.60
2023-02-26T08:01:44.076Z,-1.50
2023-02-26T08:04:10.773Z,-1.50
2023-02-26T08:06:37.546Z,-1.40
2023-02-26T08:09:05.319Z,-1.40
2023-02-26T08:11:39.544Z,-1.40
2023-02-26T08:14:07.688Z,-1.20
2023-02-26T08:16:34.328Z,-1.20
2023-02-26T08:19:01.209Z,-1.20
2023-02-26T08:21:27.859Z,-1.20
2023-02-26T08:23:55.084Z,-1.10
2023-02-26T08:26:21.752Z,-1.10
2023-02-26T08:28:48.805Z,-1.00
2023-02-26T08:31:16.207Z,-0.70
2023-02-26T08:33:43.440Z,-0.50
2023-02-26T08:36:10.212Z,-0.40
2023-02-26T08:38:36.865Z,-0.30
2023-02-26T08:41:03.909Z,0.00
2023-02-26T08:43:30.843Z,0.00
2023-02-26T08:45:57.983Z,-0.10
2023-02-26T08:48:24.682Z,-0.20
2023-02-26T08:50:51.611Z,0.10
2023-02-26T08:53:18.490Z,-0.30
2023-02-26T08:55:49.164Z,-0.30
2023-02-26T08:58:16.454Z,0.00
2023-02-26T09:00:43.531Z,0.40
2023-02-26T09:03:10.237Z,0.50
2023-02-26T09:05:37.367Z,0.40
2023-02-26T09:08:04.246Z,0.10
2023-02-26T09:10:30.929Z,0.20
2023-02-26T09:12:57.872Z,0.30
2023-02-26T09:15:24.479Z,0.20
2023-02-26T09:17:51.732Z,0.30
2023-02-26T09:20:18.560Z,0.50
2023-02-26T09:22:45.227Z,0.90
2023-02-26T09:25:12.247Z,1.00
2023-02-26T09:27:38.894Z,0.80
2023-02-26T09:30:06.756Z,0.80
2023-02-26T09:32:33.623Z,0.90
2023-02-26T09:35:00.347Z,1.00
2023-02-26T09:37:26.997Z,1.00
2023-02-26T09:39:54.981Z,0.70
2023-02-26T09:42:54.249Z,0.50
2023-02-26T09:45:55.428Z,0.50
2023-02-26T09:48:24.266Z,0.60
2023-02-26T09:50:57.628Z,0.70
2023-02-26T09:53:27.882Z,0.80
2023-02-26T09:56:01.761Z,0.30
2023-02-26T09:58:35.688Z,0.10
2023-02-26T10:01:23.635Z,0.10
2023-02-26T10:04:11.281Z,0.00
2023-02-26T10:06:56.667Z,0.10
2023-02-26T10:09:30.576Z,0.50
2023-02-26T10:12:06.868Z,0.80
2023-02-26T10:14:54.646Z,0.90
2023-02-26T10:17:29.918Z,0.60
2023-02-26T10:20:02.832Z,0.50
2023-02-26T10:22:57.279Z,0.80
2023-02-26T10:25:49.328Z,1.30
2023-02-26T10:28:34.792Z,1.30
2023-02-26T10:31:23.218Z,1.40
2023-02-26T10:34:00.411Z,1.50
2023-02-26T10:36:30.805Z,1.40
2023-02-26T10:39:16.254Z,1.40
2023-02-26T10:41:43.527Z,1.70
2023-02-26T10:44:37.395Z,1.50
2023-02-26T10:47:44.617Z,1.60
2023-02-26T10:50:15.023Z,1.70
2023-02-26T10:52:44.770Z,1.40
2023-02-26T10:55:26.466Z,1.30
2023-02-26T10:58:05.378Z,1.10
2023-02-26T11:00:35.047Z,1.50
2023-02-26T11:03:03.905Z,2.20
2023-02-26T11:05:32.552Z,2.00
2023-02-26T11:08:09.128Z,1.70
2023-02-26T11:10:51.590Z,1.50
2023-02-26T11:13:18.399Z,1.30
2023-02-26T11:15:51.639Z,1.30
2023-02-26T11:18:31.321Z,1.80
2023-02-26T11:21:00.390Z,2.30
2023-02-26T11:23:30.720Z,2.60
2023-02-26T11:26:06.102Z,2.50
2023-02-26T11:28:46.537Z,2.40
2023-02-26T11:31:18.549Z,2.00
2023-02-26T11:33:50.035Z,1.70
2023-02-26T11:36:20.185Z,1.50
2023-02-26T11:38:53.742Z,1.90
2023-02-26T11:41:22.016Z,2.10
2023-02-26T11:43:56.325Z,1.80
2023-02-26T11:46:25.269Z,1.70
2023-02-26T11:48:55.399Z,2.00
2023-02-26T11:51:27.347Z,2.20
2023-02-26T11:53:57.586Z,2.20
2023-02-26T11:56:31.140Z,2.40
2023-02-26T11:59:05.405Z,2.40
2023-02-26T12:01:32.165Z,2.50
2023-02-26T12:04:02.938Z,2.40
2023-02-26T12:06:30.578Z,1.80
2023-02-26T12:08:57.281Z,1.40
2023-02-26T12:11:46.276Z,1.50
2023-02-26T12:14:37.819Z,1.90
2023-02-26T12:17:13.486Z,2.20
2023-02-26T12:20:22.295Z,2.20
2023-02-26T12:22:54.779Z,2.10
2023-02-26T12:25:33.192Z,1.90
2023-02-26T12:28:31.027Z,2.10
2023-02-26T12:31:06.656Z,2.10
2023-02-26T12:34:08.511Z,2.50
2023-02-26T12:36:53.904Z,2.90
2023-02-26T12:39:40.123Z,2.80
2023-02-26T12:42:15.606Z,2.40
2023-02-26T12:44:52.158Z,2.20
2023-02-26T12:47:35.507Z,1.90
2023-02-26T12:50:10.948Z,2.10
2023-02-26T12:53:05.912Z,1.70
2023-02-26T12:55:56.361Z,2.00
2023-02-26T12:58:39.322Z,2.20
2023-02-26T13:01:28.204Z,2.30
2023-02-26T13:03:55.041Z,2.70
2023-02-26T13:06:52.644Z,2.90
2023-02-26T13:09:44.318Z,2.90
2023-02-26T13:12:29.785Z,2.90
2023-02-26T13:15:43.276Z,2.70
2023-02-26T13:18:18.352Z,2.30
2023-02-26T13:21:00.396Z,1.90
2023-02-26T13:23:38.393Z,2.30
2023-02-26T13:26:09.546Z,2.30
2023-02-26T13:28:39.183Z,2.30
2023-02-26T13:31:31.888Z,2.20
2023-02-26T13:34:04.325Z,2.50
2023-02-26T13:36:31.650Z,2.70
2023-02-26T13:39:29.575Z,2.70
2023-02-26T13:42:18.788Z,2.60
2023-02-26T13:45:11.980Z,2.50
2023-02-26T13:48:08.644Z,2.30
2023-02-26T13:51:03.675Z,2.30
2023-02-26T13:53:33.605Z,2.50
2023-02-26T13:56:18.794Z,2.60
2023-02-26T13:58:49.391Z,2.70
2023-02-26T14:01:38.033Z,2.80
2023-02-26T14:04:21.500Z,2.70
2023-02-26T14:07:05.845Z,2.60
2023-02-26T14:09:45.508Z,2.50
2023-02-26T14:12:15.743Z,2.70
2023-02-26T14:15:11.472Z,2.60
2023-02-26T14:17:50.383Z,3.00
2023-02-26T14:20:31.497Z,3.00
2023-02-26T14:23:10.778Z,2.80
2023-02-26T14:25:38.555Z,2.30
2023-02-26T14:28:19.006Z,2.10
2023-02-26T14:30:53.066Z,2.10
2023-02-26T14:33:29.211Z,2.30
2023-02-26T14:35:56.662Z,2.40
2023-02-26T14:38:33.840Z,2.40
2023-02-26T14:41:07.375Z,2.50
2023-02-26T14:43:43.289Z,2.80
2023-02-26T14:46:11.242Z,2.90
2023-02-26T14:48:39.316Z,2.80
2023-02-26T14:51:14.840Z,2.80
2023-02-26T14:53:50.542Z,2.80
2023-02-26T14:56:22.890Z,2.50
2023-02-26T14:59:14.459Z,2.20
2023-02-26T15:02:16.561Z,2.00
2023-02-26T15:05:05.319Z,2.10
2023-02-26T15:07:53.420Z,2.30
2023-02-26T15:10:57.487Z,2.30
2023-02-26T15:13:39.205Z,2.30
2023-02-26T15:16:21.677Z,2.30
2023-02-26T15:18:54.138Z,2.20
2023-02-26T15:21:35.233Z,2.20
2023-02-26T15:24:02.477Z,2.20
2023-02-26T15:26:35.073Z,2.10
2023-02-26T15:29:09.900Z,2.00
2023-02-26T15:31:54.791Z,2.00
2023-02-26T15:34:22.323Z,2.00
2023-02-26T15:36:54.020Z,1.80
2023-02-26T15:39:23.553Z,1.70
2023-02-26T15:41:51.721Z,1.70
2023-02-26T15:44:24.541Z,1.90
2023-02-26T15:46:56.528Z,1.90
2023-02-26T15:49:35.366Z,1.90
2023-02-26T15:52:04.674Z,2.00
2023-02-26T15:54:43.030Z,1.90
2023-02-26T15:57:12.223Z,2.00
2023-02-26T15:59:47.366Z,2.10
2023-02-26T16:02:25.781Z,2.10
2023-02-26T16:04:53.138Z,2.00
2023-02-26T16:07:20.072Z,2.10
2023-02-26T16:09:49.546Z,2.00
2023-02-26T16:12:23.110Z,1.90
2023-02-26T16:15:01.183Z,1.80
2023-02-26T16:17:32.138Z,1.80
2023-02-26T16:20:03.289Z,1.80
2023-02-26T16:22:44.237Z,1.90
2023-02-26T16:25:29.613Z,1.90
2023-02-26T16:28:03.061Z,1.90
2023-02-26T16:30:36.365Z,1.80
2023-02-26T16:33:05.352Z,1.80
2023-02-26T16:35:38.440Z,1.70
2023-02-26T16:38:25.218Z,1.60
2023-02-26T16:40:59.256Z,1.60
2023-02-26T16:43:44.616Z,1.50
2023-02-26T16:46:15.232Z,1.60
2023-02-26T16:48:47.087Z,1.60
2023-02-26T16:51:19.922Z,1.60
2023-02-26T16:53:52.338Z,1.60
2023-02-26T16:56:23.646Z,1.50
2023-02-26T16:59:22.236Z,1.50
2023-02-26T17:02:04.616Z,1.50
2023-02-26T17:04:41.016Z,1.60
2023-02-26T17:07:29.465Z,1.60
2023-02-26T17:09:59.275Z,1.40
2023-02-26T17:12:47.909Z,1.50
2023-02-26T17:15:20.678Z,1.40
2023-02-26T17:17:48.322Z,1.30
2023-02-26T17:20:15.437Z,1.20
2023-02-26T17:22:43.881Z,1.20
2023-02-26T17:25:18.843Z,1.10
2023-02-26T17:27:46.451Z,1.00
2023-02-26T17:30:16.367Z,1.10
2023-02-26T17:32:44.057Z,1.10
2023-02-26T17:35:13.982Z,1.00
2023-02-26T17:37:40.671Z,1.00
2023-02-26T17:40:19.358Z,1.10
2023-02-26T17:42:46.160Z,1.10
2023-02-26T17:45:12.846Z,0.90
2023-02-26T17:47:39.520Z,0.90
2023-02-26T17:50:36.361Z,0.90
2023-02-26T17:53:04.665Z,1.00
2023-02-26T17:55:31.921Z,1.00
2023-02-26T17:57:58.929Z,1.00
2023-02-26T18:00:25.806Z,0.90
2023-02-26T18:02:52.602Z,0.90
2023-02-26T18:05:20.254Z,0.90
2023-02-26T18:07:48.636Z,0.80
2023-02-26T18:10:25.103Z,0.80
2023-02-26T18:12:52.072Z,0.70
2023-02-26T18:15:19.297Z,0.70
2023-02-26T18:17:46.008Z,0.70
2023-02-26T18:20:18.536Z,0.80
2023-02-26T18:22:47.783Z,0.80
2023-02-26T18:25:15.464Z,0.90
2023-02-26T18:27:43.414Z,0.80
2023-02-26T18:30:22.176Z,0.90
2023-02-26T18:32:48.969Z,1.10
2023-02-26T18:35:17.620Z,1.00
2023-02-26T18:37:45.154Z,1.00
2023-02-26T18:40:18.103Z,1.10
2023-02-26T18:42:45.003Z,1.00
2023-02-26T18:45:11.988Z,1.00
2023-02-26T18:47:38.842Z,1.00
2023-02-26T18:50:07.114Z,1.00
2023-02-26T18:52:33.937Z,1.00
2023-02-26T18:55:02.827Z,0.90
2023-02-26T18:57:30.438Z,1.00
2023-02-26T18:59:57.109Z,1.00
2023-02-26T19:02:23.825Z,1.00
2023-02-26T19:04:50.629Z,0.90
2023-02-26T19:07:17.465Z,0.90
2023-02-26T19:09:44.434Z,0.80
2023-02-26T19:12:17.431Z,0.90
2023-02-26T19:14:44.081Z,1.00
2023-02-26T19:17:10.692Z,1.00
2023-02-26T19:19:37.563Z,1.00
2023-02-26T19:22:04.153Z,1.00
2023-02-26T19:24:31.262Z,1.00
2023-02-26T19:26:58.019Z,1.00
2023-02-26T19:29:24.736Z,1.00
2023-02-26T19:31:51.579Z,1.10
2023-02-26T19:34:19.158Z,1.20
2023-02-26T19:36:49.085Z,1.30
2023-02-26T19:39:16.751Z,1.20
2023-02-26T19:41:43.616Z,1.20
2023-02-26T19:44:10.534Z,1.20
2023-02-26T19:46:37.527Z,1.20
2023-02-26T19:49:04.339Z,1.10
2023-02-26T19:51:31.177Z,1.10
2023-02-26T19:53:57.862Z,1.10
2023-02-26T19:56:24.860Z,1.00
2023-02-26T19:58:51.621Z,1.00
2023-02-26T20:01:18.563Z,1.00
2023-02-26T20:03:46.837Z,1.00
2023-02-26T20:06:14.904Z,1.10
2023-02-26T20:08:41.627Z,1.00
2023-02-26T20:11:08.521Z,1.00
2023-02-26T20:13:36.056Z,1.10
2023-02-26T20:16:05.770Z,1.10
2023-02-26T20:18:33.330Z,1.00
2023-02-26T20:21:02.340Z,1.00
2023-02-26T20:23:29.117Z,1.10
2023-02-26T20:25:59.355Z,1.00
2023-02-26T20:28:26.059Z,1.10
2023-02-26T20:30:53.477Z,1.10
2023-02-26T20:33:21.287Z,1.20
2023-02-26T20:35:48.948Z,1.20
2023-02-26T20:38:17.691Z,1.10
2023-02-26T20:40:45.829Z,1.10
2023-02-26T20:43:12.609Z,0.90
2023-02-26T20:45:40.083Z,0.80
2023-02-26T20:48:08.152Z,0.80
2023-02-26T20:50:36.080Z,0.60
2023-02-26T20:53:07.132Z,0.60
2023-02-26T20:55:34.822Z,0.60
2023-02-26T20:58:01.520Z,0.50
2023-02-26T21:00:28.289Z,0.50
2023-02-26T21:02:55.019Z,0.50
2023-02-26T21:05:22.686Z,0.40
2023-02-26T21:07:50.593Z,0.30
2023-02-26T21:10:18.960Z,0.30
2023-02-26T21:12:45.822Z,0.20
2023-02-26T21:15:13.620Z,0.20
2023-02-26T21:17:42.298Z,0.20
2023-02-26T21:20:11.807Z,0.20
2023-02-26T21:22:39.102Z,0.20
2023-02-26T21:25:07.165Z,0.10
2023-02-26T21:27:34.991Z,0.00
2023-02-26T21:30:01.983Z,-0.10
2023-02-26T21:32:28.691Z,-0.10
2023-02-26T21:34:55.703Z,-0.20
2023-02-26T21:37:22.348Z,-0.30
2023-02-26T21:39:48.999Z,-0.40
2023-02-26T21:42:15.753Z,-0.40
2023-02-26T21:44:42.736Z,-0.40
2023-02-26T21:47:10.990Z,-0.50
2023-02-26T21:49:38.084Z,-0.50
2023-02-26T21:52:06.161Z,-0.60
2023-02-26T21:54:33.488Z,-0.70
2023-02-26T21:57:00.295Z,-0.70
2023-02-26T21:59:27.037Z,-0.90
2023-02-26T22:01:53.999Z,-0.90
2023-02-26T22:04:21.685Z,-0.70
2023-02-26T22:06:48.350Z,-0.90
2023-02-26T22:09:15.013Z,-1.10
2023-02-26T22:11:41.697Z,-1.10
2023-02-26T22:14:08.536Z,-1.00
2023-02-26T22:16:35.440Z,-1.10
2023-02-26T22:19:02.178Z,-1.10
2023-02-26T22:21:29.096Z,-1.00
2023-02-26T22:23:56.081Z,-0.90
2023-02-26T22:26:22.820Z,-0.90
2023-02-26T22:28:49.420Z,-0.80
2023-02-26T22:31:16.143Z,-0.80
2023-02-26T22:33:42.818Z,-0.70
2023-02-26T22:36:10.023Z,-0.60
2023-02-26T22:38:36.661Z,-0.60
2023-02-26T22:41:03.375Z,-0.60
2023-02-26T22:43:29.960Z,-0.70
2023-02-26T22:45:56.777Z,-0.70
2023-02-26T22:48:23.412Z,-0.80
2023-02-26T22:50:50.768Z,-0.90
2023-02-26T22:53:17.476Z,-0.90
2023-02-26T22:55:44.207Z,-0.90
2023-02-26T22:58:11.805Z,-1.00
2023-02-26T23:00:38.466Z,-1.10
2023-02-26T23:03:05.093Z,-1.30
2023-02-26T23:05:31.684Z,-1.40
2023-02-26T23:07:58.431Z,-1.40
2023-02-26T23:10:25.143Z,-1.30
2023-02-26T23:12:51.761Z,-1.30
2023-02-26T23:15:18.503Z,-1.30
2023-02-26T23:17:45.149Z,-1.20
2023-02-26T23:20:14.016Z,-1.20
2023-02-26T23:22:41.504Z,-1.20
2023-02-26T23:25:08.579Z,-1.40
2023-02-26T23:27:35.252Z,-1.60
2023-02-26T23:30:02.502Z,-1.60
2023-02-26T23:32:29.281Z,-1.60
2023-02-26T23:34:56.168Z,-1.70
2023-02-26T23:37:23.401Z,-1.70
2023-02-26T23:39:50.132Z,-1.80
2023-02-26T23:42:16.849Z,-1.90
2023-02-26T23:44:43.991Z,-2.00
2023-02-26T23:47:10.704Z,-1.90
2023-02-26T23:49:37.469Z,-1.90
2023-02-26T23:52:04.262Z,-1.90
2023-02-26T23:54:31.092Z,-1.90
2023-02-26T23:56:57.730Z,-1.90
2023-02-26T23:59:24.591Z,-1.90
